Time;durP1;ratioP1;P1;durP2;ratioP2;P2;SDS_P1;SDS_P2;PMS_P1;PMS_P2;Temp;Humidity;BMP_temperature;BMP_pressure;BME280_temperature;BME280_humidity;BME280_pressure;Samples;Min_cycle;Max_cycle;Signal;HPM_P1;HPM_P2
2021/12/26 00:04:55;;;;;;;79.50;28.30;;;;;;;-10.99;75.04;99693.55;209317;1316;141989;-69
2021/12/26 00:09:59;;;;;;;64.20;28.90;;;;;;;-10.93;75.62;99690.52;208383;1319;140414;-70
2021/12/26 00:15:06;;;;;;;58.70;25.10;;;;;;;-10.89;75.08;99689.08;208964;1317;141600;-70
2021/12/26 00:20:10;;;;;;;62.80;27.30;;;;;;;-10.85;75.34;99688.84;208065;1315;141064;-72
2021/12/26 00:25:15;;;;;;;70.40;26.50;;;;;;;-10.78;75.43;99689.09;208730;1316;140808;-71
2021/12/26 00:30:20;;;;;;;55.90;24.10;;;;;;;-10.77;75.15;99690.02;208410;1317;140682;-72
2021/12/26 00:35:24;;;;;;;57.80;27.50;;;;;;;-10.74;75.08;99693.95;207683;1316;141217;-72
2021/12/26 00:40:29;;;;;;;70.80;27.10;;;;;;;-10.81;74.85;99696.33;206918;1318;141147;-70
2021/12/26 00:45:32;;;;;;;54.30;24.40;;;;;;;-10.85;74.72;99701.58;208444;1316;141657;-73
2021/12/26 00:50:38;;;;;;;68.40;28.90;;;;;;;-10.82;75.10;99709.76;207186;1316;141590;-69
2021/12/26 00:55:43;;;;;;;58.80;27.40;;;;;;;-10.85;75.03;99709.31;206591;1316;142205;-72
2021/12/26 01:00:51;;;;;;;59.80;26.50;;;;;;;-10.96;74.40;99712.02;207426;1318;141749;-71
2021/12/26 01:05:57;;;;;;;64.50;29.10;;;;;;;-11.09;74.41;99712.40;206856;1319;141377;-68
2021/12/26 01:11:06;;;;;;;73.90;27.70;;;;;;;-11.14;74.53;99704.67;207597;1315;140427;-68
2021/12/26 01:16:11;;;;;;;71.10;29.30;;;;;;;-11.12;74.77;99700.05;207196;1316;141456;-67
2021/12/26 01:21:21;;;;;;;76.00;29.70;;;;;;;-11.11;74.75;99696.90;206933;1316;141664;-68
2021/12/26 01:26:26;;;;;;;78.80;32.20;;;;;;;-11.18;74.57;99701.12;207827;1318;141587;-68
2021/12/26 01:31:30;;;;;;;88.20;32.30;;;;;;;-11.26;74.02;99704.91;206918;1318;142694;-68
2021/12/26 01:36:35;;;;;;;106.00;40.40;;;;;;;-11.35;74.37;99694.00;207550;1318;154106;-69
2021/12/26 01:41:41;;;;;;;101.20;37.80;;;;;;;-11.30;74.59;99684.55;207237;1318;141539;-69
2021/12/26 01:46:47;;;;;;;87.30;32.50;;;;;;;-11.28;74.45;99685.79;207166;1315;143541;-67
2021/12/26 01:51:56;;;;;;;74.00;30.60;;;;;;;-11.35;74.17;99689.84;206697;1317;160477;-67
2021/12/26 01:57:02;;;;;;;79.50;32.20;;;;;;;-11.43;74.39;99679.73;207175;1317;140906;-67
2021/12/26 02:02:06;;;;;;;79.80;32.50;;;;;;;-11.44;74.56;99682.57;207794;1317;164636;-67
2021/12/26 02:07:12;;;;;;;80.10;30.20;;;;;;;-11.39;74.47;99686.55;208488;1322;142573;-66
2021/12/26 02:12:15;;;;;;;95.10;35.00;;;;;;;-11.35;74.27;99689.55;207691;1315;140572;-67
2021/12/26 02:17:19;;;;;;;86.60;41.10;;;;;;;-11.30;74.76;99686.93;207987;1316;141526;-67
2021/12/26 02:22:30;;;;;;;86.10;35.50;;;;;;;-11.31;74.36;99686.83;208624;1319;140733;-67
2021/12/26 02:27:42;;;;;;;85.40;38.20;;;;;;;-11.46;74.42;99690.92;209092;1316;141696;-68
2021/12/26 02:32:50;;;;;;;85.50;32.20;;;;;;;-11.51;74.71;99689.84;208509;1316;140508;-68
2021/12/26 02:37:54;;;;;;;81.70;31.10;;;;;;;-11.52;74.09;99688.91;208393;1315;142139;-68
2021/12/26 02:42:57;;;;;;;70.80;33.90;;;;;;;-11.56;74.04;99688.97;207764;1319;140943;-69
2021/12/26 02:48:00;;;;;;;70.40;28.00;;;;;;;-11.70;73.43;99704.13;209623;1316;140602;-70
2021/12/26 02:53:04;;;;;;;76.20;29.80;;;;;;;-11.89;73.30;99707.52;207279;1316;140717;-69
2021/12/26 02:58:10;;;;;;;75.30;31.90;;;;;;;-12.04;73.49;99711.35;207309;1317;140137;-68
2021/12/26 03:03:14;;;;;;;74.00;28.30;;;;;;;-12.16;73.21;99708.16;207039;1316;141413;-65
2021/12/26 03:08:17;;;;;;;78.00;28.60;;;;;;;-12.35;73.16;99720.92;207423;1320;141916;-66
2021/12/26 03:13:20;;;;;;;73.50;31.10;;;;;;;-12.54;73.13;99721.23;206613;1316;142431;-65
2021/12/26 03:18:25;;;;;;;61.30;28.90;;;;;;;-12.60;73.36;99724.46;206771;1316;142236;-65
2021/12/26 03:23:28;;;;;;;72.40;27.90;;;;;;;-12.64;73.43;99721.96;207289;1318;140382;-65
2021/12/26 03:28:35;;;;;;;65.90;29.20;;;;;;;-12.74;73.52;99719.98;207065;1318;142220;-64
2021/12/26 03:33:39;;;;;;;65.70;27.10;;;;;;;-12.78;73.50;99725.33;207112;1316;140699;-64
2021/12/26 03:38:42;;;;;;;74.20;30.20;;;;;;;-12.85;73.49;99723.36;207323;1320;140889;-64
2021/12/26 03:43:46;;;;;;;72.60;26.90;;;;;;;-12.85;73.80;99724.55;206985;1319;141774;-64
2021/12/26 03:48:49;;;;;;;50.90;24.40;;;;;;;-12.71;74.21;99724.58;207549;1321;140712;-64
2021/12/26 03:53:54;;;;;;;63.90;27.40;;;;;;;-12.67;73.83;99729.85;207163;1319;143276;-64
2021/12/26 03:58:58;;;;;;;65.20;27.90;;;;;;;-12.65;74.11;99730.20;207625;1316;141909;-63
2021/12/26 04:04:02;;;;;;;66.80;27.60;;;;;;;-12.70;73.63;99733.79;207092;1318;140717;-66
2021/12/26 04:09:08;;;;;;;59.60;25.20;;;;;;;-12.81;73.54;99730.45;208371;1315;140142;-67
2021/12/26 04:14:16;;;;;;;63.80;23.00;;;;;;;-12.88;73.57;99738.76;209101;1320;142701;-66
2021/12/26 04:19:20;;;;;;;56.20;24.10;;;;;;;-12.94;73.47;99738.75;207600;1316;141088;-64
2021/12/26 04:24:23;;;;;;;66.70;25.80;;;;;;;-12.94;73.69;99741.30;208617;1316;141148;-66
2021/12/26 04:29:26;;;;;;;96.10;31.60;;;;;;;-12.85;73.72;99739.77;208525;1317;141376;-67
2021/12/26 04:34:29;;;;;;;69.70;28.20;;;;;;;-12.74;73.67;99745.30;208930;1316;140778;-67
2021/12/26 04:39:32;;;;;;;59.30;24.00;;;;;;;-12.82;73.24;99750.55;209588;1320;140542;-69
2021/12/26 04:44:34;;;;;;;65.80;25.40;;;;;;;-12.95;73.22;99748.35;209003;1317;142864;-68
2021/12/26 04:49:37;;;;;;;65.50;21.60;;;;;;;-12.98;73.50;99742.56;206877;1316;141294;-67
2021/12/26 04:54:39;;;;;;;72.20;27.90;;;;;;;-12.91;73.61;99746.11;208815;1316;140510;-69
2021/12/26 04:59:42;;;;;;;61.20;26.00;;;;;;;-12.78;73.69;99749.11;207785;1313;140860;-68
2021/12/26 05:04:44;;;;;;;58.50;25.60;;;;;;;-12.66;73.79;99749.98;207570;1316;140526;-70
2021/12/26 05:09:48;;;;;;;81.10;27.20;;;;;;;-12.64;73.82;99745.92;206668;1316;142262;-69
2021/12/26 05:14:51;;;;;;;57.90;27.90;;;;;;;-12.59;74.13;99741.19;207372;1316;140927;-68
2021/12/26 05:19:58;;;;;;;52.90;23.80;;;;;;;-12.63;73.63;99740.89;207633;1317;141483;-71
2021/12/26 05:25:02;;;;;;;57.50;24.60;;;;;;;-12.68;73.55;99738.79;207251;1316;141671;-65
2021/12/26 05:30:09;;;;;;;69.80;26.40;;;;;;;-12.81;73.42;99742.59;207593;1316;142339;-66
2021/12/26 05:35:12;;;;;;;62.90;27.80;;;;;;;-12.75;73.67;99743.29;208538;1316;141679;-67
2021/12/26 05:40:15;;;;;;;71.80;26.90;;;;;;;-12.72;73.57;99754.55;206838;1316;140977;-67
2021/12/26 05:45:18;;;;;;;50.90;24.30;;;;;;;-12.84;73.04;99757.84;207573;1316;140416;-68
2021/12/26 05:50:21;;;;;;;65.10;24.30;;;;;;;-13.04;72.84;99763.55;207657;1316;140697;-67
2021/12/26 05:55:23;;;;;;;67.80;29.60;;;;;;;-13.19;72.84;99765.52;208011;1316;412846;-68
2021/12/26 06:00:28;;;;;;;51.10;21.50;;;;;;;-13.36;72.96;99769.32;207607;1315;140487;-68
2021/12/26 06:05:31;;;;;;;54.80;23.40;;;;;;;-13.52;72.74;99769.16;207503;1316;140409;-67
2021/12/26 06:10:33;;;;;;;53.90;22.50;;;;;;;-13.61;73.18;99776.68;207080;1317;140539;-67
2021/12/26 06:15:36;;;;;;;60.70;25.10;;;;;;;-13.46;73.74;99783.52;207204;1316;140025;-67
2021/12/26 06:20:39;;;;;;;50.80;23.60;;;;;;;-13.30;73.91;99789.48;208727;1316;140761;-67
2021/12/26 06:25:42;;;;;;;60.70;21.60;;;;;;;-13.23;73.90;99791.05;207826;1315;141742;-66
2021/12/26 06:30:45;;;;;;;50.90;20.80;;;;;;;-13.28;73.22;99791.30;208776;1315;142237;-66
2021/12/26 06:35:50;;;;;;;47.40;22.60;;;;;;;-13.40;73.06;99794.84;208748;1317;142775;-66
2021/12/26 06:40:55;;;;;;;59.40;22.90;;;;;;;-13.45;73.40;99799.89;209524;1316;140889;-66
2021/12/26 06:45:58;;;;;;;54.10;21.20;;;;;;;-13.44;73.35;99802.58;208878;1316;142174;-66
2021/12/26 06:51:02;;;;;;;53.10;20.70;;;;;;;-13.40;73.54;99805.08;207596;1317;143439;-68
2021/12/26 06:56:05;;;;;;;60.20;22.90;;;;;;;-13.23;74.08;99807.09;207055;1316;141935;-67
2021/12/26 07:01:10;;;;;;;68.20;23.50;;;;;;;-13.05;74.18;99809.64;207223;1317;141957;-74
2021/12/26 07:06:15;;;;;;;70.10;27.00;;;;;;;-12.88;74.26;99807.86;207659;1316;141415;-75
2021/12/26 07:11:20;;;;;;;57.50;24.50;;;;;;;-12.82;74.08;99804.95;207245;1317;141743;-72
2021/12/26 07:16:24;;;;;;;65.10;25.70;;;;;;;-12.77;73.95;99811.67;207433;1315;142739;-70
2021/12/26 07:21:26;;;;;;;65.80;28.20;;;;;;;-12.66;74.24;99812.79;207700;1317;141689;-69
2021/12/26 07:26:28;;;;;;;71.00;27.90;;;;;;;-12.49;74.55;99819.87;207206;1318;141945;-67
2021/12/26 07:31:35;;;;;;;65.20;29.80;;;;;;;-12.42;74.00;99828.88;207148;1318;142685;-69
2021/12/26 07:36:38;;;;;;;74.80;30.70;;;;;;;-12.41;74.01;99834.81;208326;1316;141016;-67
2021/12/26 07:41:45;;;;;;;87.80;39.40;;;;;;;-12.26;74.20;99840.81;206938;1318;141926;-69
2021/12/26 07:46:49;;;;;;;73.00;32.50;;;;;;;-12.08;74.61;99843.67;207000;1317;140263;-66
2021/12/26 07:51:54;;;;;;;77.50;34.10;;;;;;;-11.87;74.54;99852.88;207352;1316;140231;-67
2021/12/26 07:57:00;;;;;;;65.90;28.10;;;;;;;-11.67;74.76;99857.47;207684;1318;140763;-66
2021/12/26 08:02:04;;;;;;;88.90;34.50;;;;;;;-11.56;74.49;99856.11;207184;1316;141404;-72
2021/12/26 08:07:07;;;;;;;71.60;29.30;;;;;;;-11.40;74.80;99857.42;207773;1316;140909;-69
2021/12/26 08:12:11;;;;;;;78.10;35.50;;;;;;;-11.19;75.19;99852.88;207626;1313;140387;-72
2021/12/26 08:17:14;;;;;;;80.90;35.20;;;;;;;-11.08;75.13;99845.16;207129;1316;139802;-68
2021/12/26 08:22:17;;;;;;;79.80;38.10;;;;;;;-10.95;75.57;99854.41;207219;1318;140851;-68
2021/12/26 08:27:21;;;;;;;116.30;46.50;;;;;;;-10.89;75.75;99848.02;209245;1315;140876;-67
2021/12/26 08:32:24;;;;;;;76.80;35.80;;;;;;;-10.73;75.66;99845.80;207620;1316;140964;-66
2021/12/26 08:37:29;;;;;;;71.60;34.20;;;;;;;-10.57;75.25;99841.73;207556;1316;142254;-67
2021/12/26 08:42:34;;;;;;;71.70;32.00;;;;;;;-10.40;75.52;99841.50;208710;1317;142142;-70
2021/12/26 08:47:38;;;;;;;76.80;31.90;;;;;;;-10.20;75.75;99846.64;209095;1317;142392;-73
2021/12/26 08:52:41;;;;;;;71.50;33.20;;;;;;;-9.92;75.86;99855.25;207027;1316;140433;-72
2021/12/26 08:57:46;;;;;;;70.80;36.60;;;;;;;-9.62;76.17;99854.48;208959;1316;140216;-69
2021/12/26 09:02:50;;;;;;;73.70;31.80;;;;;;;-9.45;76.40;99859.11;207594;1316;139703;-71
2021/12/26 09:07:53;;;;;;;76.40;35.10;;;;;;;-9.38;76.46;99864.33;207965;1316;140005;-68
2021/12/26 09:12:58;;;;;;;87.20;34.60;;;;;;;-9.32;76.63;99857.85;207582;1316;140571;-70
2021/12/26 09:18:02;;;;;;;69.20;32.00;;;;;;;-9.19;76.92;99856.59;208011;1317;140863;-72
2021/12/26 09:23:05;;;;;;;95.60;37.90;;;;;;;-8.99;77.12;99857.26;206922;1317;141566;-70
2021/12/26 09:28:11;;;;;;;96.80;42.80;;;;;;;-8.80;76.65;99871.98;208711;1317;140082;-69
2021/12/26 09:33:21;;;;;;;80.30;36.90;;;;;;;-8.64;76.33;99877.73;208007;1317;141702;-72
2021/12/26 09:38:24;;;;;;;68.00;32.50;;;;;;;-8.47;76.63;99876.09;207053;1318;140997;-71
2021/12/26 09:43:28;;;;;;;72.00;29.50;;;;;;;-8.31;76.93;99871.35;207652;1316;143515;-72
2021/12/26 09:48:31;;;;;;;85.20;39.20;;;;;;;-8.07;77.21;99876.23;206596;1317;144117;-69
2021/12/26 09:53:38;;;;;;;83.90;38.90;;;;;;;-7.89;77.25;99876.77;207318;1315;141759;-69
2021/12/26 09:59:01;;;;;;;53.10;23.20;;;;;;;-7.73;77.45;99872.53;207379;1316;141241;-73
2021/12/26 10:04:20;;;;;;;62.20;28.30;;;;;;;-7.61;77.48;99875.86;206980;1318;139927;-70
2021/12/26 10:09:24;;;;;;;51.30;24.70;;;;;;;-7.49;77.82;99875.64;207704;1316;140302;-72
2021/12/26 10:14:35;;;;;;;44.30;21.90;;;;;;;-7.36;78.03;99877.77;207633;1316;139867;-68
2021/12/26 10:19:45;;;;;;;38.20;17.30;;;;;;;-7.23;78.13;99877.10;206917;1317;139834;-66
2021/12/26 10:24:49;;;;;;;42.00;21.90;;;;;;;-7.13;78.14;99876.08;207345;1317;139924;-66
2021/12/26 10:30:05;;;;;;;42.10;20.40;;;;;;;-7.01;78.18;99882.65;208462;1316;141229;-68
2021/12/26 10:35:09;;;;;;;48.40;19.70;;;;;;;-6.78;78.13;99888.33;207909;1317;142541;-68
2021/12/26 10:40:21;;;;;;;42.50;21.20;;;;;;;-6.53;78.14;99887.87;207290;1316;141401;-68
2021/12/26 10:45:35;;;;;;;51.30;22.00;;;;;;;-6.24;78.21;99877.72;208035;1316;141913;-71
2021/12/26 10:50:45;;;;;;;49.70;24.00;;;;;;;-6.00;78.12;99874.89;209537;1316;140453;-67
2021/12/26 10:55:54;;;;;;;53.60;26.50;;;;;;;-5.85;77.88;99868.89;208582;1316;140425;-68
2021/12/26 11:00:58;;;;;;;29.60;12.60;;;;;;;-5.75;77.73;99865.64;207958;1316;139612;-72
2021/12/26 11:06:06;;;;;;;76.50;35.00;;;;;;;-5.80;77.34;99866.73;208077;1319;141268;-69
2021/12/26 11:11:13;;;;;;;;;;;;;;;-5.83;77.21;99864.78;208607;1316;140666;-69
2021/12/26 11:16:17;;;;;;;120.60;79.50;;;;;;;-5.83;77.48;99858.86;209268;1315;125880;-70
2021/12/26 11:21:23;;;;;;;54.70;30.00;;;;;;;-5.73;77.67;99862.38;207982;1317;141267;-69
2021/12/26 11:26:27;;;;;;;74.20;32.10;;;;;;;-5.68;77.38;99853.15;207939;1315;139837;-70
2021/12/26 11:31:30;;;;;;;76.60;37.80;;;;;;;-5.60;77.38;99844.31;207423;1318;140834;-69
2021/12/26 11:36:34;;;;;;;59.40;30.50;;;;;;;-5.39;77.56;99841.13;206999;1316;139993;-70
2021/12/26 11:42:07;;;;;;;64.50;30.60;;;;;;;-5.21;77.51;99839.47;207624;1318;139722;-70
2021/12/26 11:47:41;;;;;;;53.70;24.60;;;;;;;-5.03;77.38;99838.13;207520;1316;141764;-69
2021/12/26 11:53:25;;;;;;;48.40;22.30;;;;;;;-4.85;77.42;99838.94;206913;1316;140603;-69
2021/12/26 11:58:45;;;;;;;59.20;26.10;;;;;;;-4.72;77.29;99834.64;207630;1316;140459;-69
2021/12/26 12:04:10;;;;;;;58.90;25.60;;;;;;;-4.67;77.14;99834.35;207572;1316;140592;-68
2021/12/26 12:09:33;;;;;;;58.60;28.00;;;;;;;-4.68;76.86;99827.34;207633;1319;141167;-69
2021/12/26 12:14:55;;;;;;;64.80;32.30;;;;;;;-4.70;76.72;99826.82;207379;1316;141043;-68
2021/12/26 12:20:20;;;;;;;59.60;29.10;;;;;;;-4.63;76.46;99828.09;207834;1315;142257;-66
2021/12/26 12:25:36;;;;;;;62.00;30.90;;;;;;;-4.59;76.62;99823.40;208092;1315;139891;-68
2021/12/26 12:30:40;;;;;;;46.70;21.90;;;;;;;-4.50;76.74;99827.28;207877;1316;142067;-68
2021/12/26 12:36:03;;;;;;;44.80;21.30;;;;;;;-4.41;76.62;99823.41;207097;1315;140852;-67
2021/12/26 12:41:29;;;;;;;48.50;24.20;;;;;;;-4.36;76.40;99826.48;207747;1315;140827;-68
2021/12/26 12:46:53;;;;;;;53.60;25.70;;;;;;;-4.32;76.31;99824.30;208153;1316;139673;-68
2021/12/26 12:51:58;;;;;;;48.20;25.00;;;;;;;-4.31;75.95;99822.35;209142;1315;139789;-68
2021/12/26 12:57:06;;;;;;;61.90;29.60;;;;;;;-4.33;75.58;99818.84;208713;1318;141377;-68
2021/12/26 13:02:29;;;;;;;52.00;24.50;;;;;;;-4.36;75.54;99823.50;207922;1318;140292;-67
2021/12/26 13:07:33;;;;;;;49.00;27.50;;;;;;;-4.41;75.39;99817.11;208791;1315;140145;-68
2021/12/26 13:12:36;;;;;;;55.40;26.30;;;;;;;-4.44;75.33;99819.11;209361;1316;140481;-68
2021/12/26 13:17:43;;;;;;;49.40;22.00;;;;;;;-4.46;75.36;99819.13;207993;1317;140612;-67
2021/12/26 13:22:53;;;;;;;52.50;24.70;;;;;;;-4.49;75.11;99823.76;209374;1318;139945;-68
2021/12/26 13:27:57;;;;;;;67.20;30.00;;;;;;;-4.51;74.85;99818.88;207314;1315;140498;-68
2021/12/26 13:33:01;;;;;;;50.00;23.80;;;;;;;-4.57;74.82;99825.86;207144;1315;139840;-67
2021/12/26 13:38:06;;;;;;;52.10;30.20;;;;;;;-4.82;74.67;99824.90;207980;1316;140802;-67
2021/12/26 13:43:10;;;;;;;62.70;33.70;;;;;;;-4.91;74.90;99824.70;207431;1317;141885;-66
2021/12/26 13:48:47;;;;;;;60.80;31.70;;;;;;;-5.06;74.68;99826.55;207154;1317;142096;-67
2021/12/26 13:54:17;;;;;;;48.20;26.60;;;;;;;-5.24;74.95;99824.95;206967;1314;666019;-67
2021/12/26 13:59:38;;;;;;;58.20;28.00;;;;;;;-5.49;74.49;99830.08;207683;1316;140839;-66
2021/12/26 14:04:45;;;;;;;77.70;36.40;;;;;;;-5.77;74.38;99834.68;207868;1318;140711;-68
2021/12/26 14:09:50;;;;;;;69.60;36.80;;;;;;;-5.94;74.59;99832.34;208412;1316;139888;-67
2021/12/26 14:14:52;;;;;;;71.30;33.60;;;;;;;-6.08;74.61;99833.64;207146;1316;139722;-68
2021/12/26 14:19:57;;;;;;;70.80;35.20;;;;;;;-6.31;74.48;99830.41;207164;1316;139856;-66
2021/12/26 14:25:00;;;;;;;56.00;26.70;;;;;;;-6.59;74.24;99840.98;207574;1315;140383;-67
2021/12/26 14:30:04;;;;;;;65.30;32.30;;;;;;;-6.96;74.03;99848.09;207187;1316;142353;-68
2021/12/26 14:35:13;;;;;;;59.00;29.70;;;;;;;-7.20;74.38;99855.48;207591;1316;139816;-69
2021/12/26 14:40:16;;;;;;;60.90;26.20;;;;;;;-7.34;74.54;99855.71;207043;1316;142612;-68
2021/12/26 14:45:18;;;;;;;61.10;27.00;;;;;;;-7.40;74.70;99856.89;207593;1316;140197;-68
2021/12/26 14:50:23;;;;;;;66.10;26.10;;;;;;;-7.48;74.46;99856.98;207991;1316;141644;-68
2021/12/26 14:55:29;;;;;;;61.80;28.70;;;;;;;-7.59;74.20;99860.54;207288;1316;141767;-66
2021/12/26 15:00:31;;;;;;;62.40;30.10;;;;;;;-7.72;74.22;99860.71;208295;1316;141804;-69
2021/12/26 15:05:36;;;;;;;45.40;22.30;;;;;;;-7.94;74.10;99861.31;208179;1316;139830;-68
2021/12/26 15:10:41;;;;;;;44.20;20.10;;;;;;;-8.27;73.65;99867.38;209141;1316;141055;-69
2021/12/26 15:15:49;;;;;;;54.60;25.10;;;;;;;-8.66;73.72;99872.67;209343;1316;141379;-69
2021/12/26 15:20:57;;;;;;;67.40;32.20;;;;;;;-8.87;73.71;99880.38;207919;1316;142493;-69
2021/12/26 15:25:59;;;;;;;63.20;28.70;;;;;;;-8.94;73.79;99887.58;208993;1315;141474;-68
2021/12/26 15:31:14;;;;;;;71.20;32.40;;;;;;;-9.11;73.57;99889.61;208355;1316;142749;-68
2021/12/26 15:36:19;;;;;;;62.80;31.50;;;;;;;-9.14;74.00;99892.10;208941;1316;141696;-69
2021/12/26 15:41:27;;;;;;;79.20;35.70;;;;;;;-9.26;73.26;99895.98;207713;1317;141503;-69
2021/12/26 15:46:34;;;;;;;56.60;29.80;;;;;;;-9.46;73.27;99899.95;207687;1317;141146;-69
2021/12/26 15:51:37;;;;;;;72.90;32.60;;;;;;;-9.56;73.29;99894.80;207506;1318;140816;-70
2021/12/26 15:56:41;;;;;;;76.80;31.80;;;;;;;-9.74;72.81;99891.07;207166;1317;142313;-69
2021/12/26 16:01:47;;;;;;;81.50;32.00;;;;;;;-9.92;73.21;99903.08;207341;1318;142626;-69
2021/12/26 16:06:50;;;;;;;60.20;30.30;;;;;;;-10.04;73.29;99902.09;208117;1316;144897;-70
2021/12/26 16:11:53;;;;;;;55.60;25.80;;;;;;;-10.17;73.13;99903.84;206671;1317;144068;-68
2021/12/26 16:16:56;;;;;;;50.60;26.00;;;;;;;-10.14;73.83;99904.00;206896;1317;141844;-69
2021/12/26 16:21:59;;;;;;;71.00;34.00;;;;;;;-10.31;73.00;99915.76;206802;1317;142103;-66
2021/12/26 16:27:01;;;;;;;66.80;29.50;;;;;;;-10.51;73.08;99923.61;207840;1317;142712;-69
2021/12/26 16:32:03;;;;;;;65.20;29.40;;;;;;;-10.65;73.09;99926.37;207088;1318;141387;-67
2021/12/26 16:37:06;;;;;;;57.50;28.80;;;;;;;-10.77;73.16;99926.94;207059;1316;154675;-69
2021/12/26 16:42:08;;;;;;;59.00;27.50;;;;;;;-10.90;73.56;99926.88;207365;1316;142416;-67
2021/12/26 16:47:11;;;;;;;69.00;30.70;;;;;;;-10.89;73.29;99926.46;207282;1316;142492;-69
2021/12/26 16:52:15;;;;;;;71.90;34.40;;;;;;;-11.03;73.01;99928.23;206761;1316;141914;-67
2021/12/26 16:57:18;;;;;;;66.90;29.00;;;;;;;-11.02;73.51;99930.93;207602;1317;141841;-70
2021/12/26 17:02:21;;;;;;;59.30;30.10;;;;;;;-11.04;73.27;99934.48;207326;1316;142393;-69
2021/12/26 17:07:29;;;;;;;59.40;24.70;;;;;;;-11.16;73.17;99927.30;209144;1318;143061;-69
2021/12/26 17:12:33;;;;;;;49.50;23.00;;;;;;;-11.32;73.00;99931.85;208883;1316;141525;-70
2021/12/26 17:17:36;;;;;;;62.00;26.40;;;;;;;-11.41;72.98;99935.69;208253;1318;141338;-70
2021/12/26 17:22:39;;;;;;;85.30;33.10;;;;;;;-11.42;72.82;99935.41;209619;1317;142467;-70
2021/12/26 17:27:42;;;;;;;71.40;33.60;;;;;;;-11.55;72.61;99944.20;209307;1315;142493;-70
2021/12/26 17:32:53;;;;;;;85.10;34.90;;;;;;;-11.56;73.24;99945.50;207564;1316;141121;-69
2021/12/26 17:37:56;;;;;;;65.90;34.40;;;;;;;-11.48;73.07;99943.44;207080;1316;141584;-69
2021/12/26 17:42:59;;;;;;;66.80;30.90;;;;;;;-11.49;73.23;99940.91;208039;1315;142465;-69
2021/12/26 17:48:01;;;;;;;83.60;35.40;;;;;;;-11.55;72.89;99948.14;207602;1316;211694;-69
2021/12/26 17:53:03;;;;;;;89.40;40.00;;;;;;;-11.60;72.86;99950.68;207815;1315;141068;-69
2021/12/26 17:58:05;;;;;;;89.40;45.20;;;;;;;-11.61;73.38;99952.29;207395;1316;141600;-69
2021/12/26 18:03:07;;;;;;;81.50;37.80;;;;;;;-11.72;72.56;99953.30;208380;1318;142097;-70
2021/12/26 18:08:10;;;;;;;85.50;36.90;;;;;;;-11.99;72.38;99957.79;207097;1316;140842;-68
2021/12/26 18:13:13;;;;;;;88.80;42.60;;;;;;;-12.16;72.67;99948.13;206949;1318;140231;-69
2021/12/26 18:18:15;;;;;;;111.40;52.60;;;;;;;-12.19;73.12;99951.52;207430;1316;140756;-68
2021/12/26 18:23:18;;;;;;;99.00;38.90;;;;;;;-12.10;73.22;99949.66;207746;1316;141201;-68
2021/12/26 18:28:20;;;;;;;84.10;39.80;;;;;;;-12.13;72.66;99956.48;206822;1316;140295;-68
2021/12/26 18:33:29;;;;;;;113.90;47.60;;;;;;;-12.30;72.54;99954.91;207836;1315;140878;-69
2021/12/26 18:38:32;;;;;;;96.00;41.00;;;;;;;-12.37;72.73;99956.67;206990;1316;140737;-68
2021/12/26 18:43:34;;;;;;;108.10;47.80;;;;;;;-12.45;72.47;99958.50;206908;1318;141493;-66
2021/12/26 18:48:37;;;;;;;131.10;52.70;;;;;;;-12.53;72.92;99965.58;207505;1318;141332;-68
2021/12/26 18:53:41;;;;;;;132.20;52.30;;;;;;;-12.55;73.01;99962.96;207314;1316;141332;-67
2021/12/26 18:58:43;;;;;;;145.50;52.20;;;;;;;-12.52;72.90;99962.66;207757;1316;140426;-69
2021/12/26 19:03:46;;;;;;;126.20;52.20;;;;;;;-12.53;73.01;99963.53;206949;1316;141509;-68
2021/12/26 19:08:49;;;;;;;132.50;50.20;;;;;;;-12.64;72.59;99961.23;206600;1318;141215;-72
2021/12/26 19:13:51;;;;;;;138.00;57.80;;;;;;;-12.77;72.74;99966.56;207938;1318;141828;-69
2021/12/26 19:18:54;;;;;;;138.00;52.80;;;;;;;-12.89;72.68;99968.58;207134;1316;140468;-72
2021/12/26 19:23:58;;;;;;;154.40;63.70;;;;;;;-12.88;72.80;99965.95;209320;1318;141494;-69
2021/12/26 19:29:02;;;;;;;219.10;77.10;;;;;;;-12.85;72.86;99964.11;208500;1316;142722;-70
2021/12/26 19:34:07;;;;;;;187.90;77.40;;;;;;;-12.77;72.74;99957.63;208164;1318;141219;-70
2021/12/26 19:39:09;;;;;;;183.00;73.90;;;;;;;-12.67;72.91;99957.11;207876;1318;143651;-71
2021/12/26 19:44:16;;;;;;;167.90;65.70;;;;;;;-12.87;71.79;99956.81;208439;1315;140743;-68
2021/12/26 19:49:19;;;;;;;173.30;71.70;;;;;;;-13.05;71.95;99954.34;207961;1316;142889;-69
2021/12/26 19:54:22;;;;;;;187.00;73.70;;;;;;;-13.17;72.17;99953.02;207594;1318;140449;-68
2021/12/26 19:59:25;;;;;;;191.80;80.30;;;;;;;-13.18;72.29;99950.83;208109;1316;142010;-70
2021/12/26 20:04:28;;;;;;;182.00;63.80;;;;;;;-13.26;72.51;99947.31;207026;1315;142745;-72
2021/12/26 20:09:30;;;;;;;181.10;82.60;;;;;;;-13.36;72.25;99939.25;207030;1317;140641;-72
2021/12/26 20:14:33;;;;;;;258.20;99.30;;;;;;;-13.38;72.67;99943.98;207220;1317;211729;-69
2021/12/26 20:19:35;;;;;;;235.50;89.40;;;;;;;-13.22;72.85;99943.68;207057;1318;140890;-71
2021/12/26 20:24:40;;;;;;;233.50;83.60;;;;;;;-13.22;72.52;99946.91;206937;1316;140488;-71
2021/12/26 20:29:43;;;;;;;213.10;81.00;;;;;;;-13.34;72.23;99946.48;207063;1316;141619;-70
2021/12/26 20:34:45;;;;;;;230.00;91.70;;;;;;;-13.43;72.15;99943.89;207124;1315;140766;-70
2021/12/26 20:39:48;;;;;;;242.40;83.30;;;;;;;-13.39;72.94;99943.67;206938;1316;140438;-72
2021/12/26 20:44:51;;;;;;;193.50;77.90;;;;;;;-13.30;72.63;99942.17;207419;1316;141813;-70
2021/12/26 20:49:55;;;;;;;206.00;82.70;;;;;;;-13.39;72.41;99945.05;207360;1316;141626;-69
2021/12/26 20:54:57;;;;;;;213.00;82.10;;;;;;;-13.48;72.46;99943.48;207125;1316;143554;-68
2021/12/26 21:00:00;;;;;;;249.50;95.50;;;;;;;-13.52;72.42;99947.09;206849;1315;141485;-75
2021/12/26 21:05:02;;;;;;;240.50;91.20;;;;;;;-13.56;72.54;99944.92;207261;1316;141416;-75
2021/12/26 21:10:07;;;;;;;201.30;86.20;;;;;;;-13.61;72.50;99947.89;207471;1316;141768;-71
2021/12/26 21:15:11;;;;;;;240.80;98.50;;;;;;;-13.69;72.32;99947.60;206980;1316;141163;-67
2021/12/26 21:20:19;;;;;;;230.30;90.50;;;;;;;-13.76;72.17;99949.02;207537;1315;140570;-70
2021/12/26 21:25:22;;;;;;;246.00;95.60;;;;;;;-13.78;72.74;99948.07;208192;1316;141751;-75
2021/12/26 21:30:24;;;;;;;270.90;101.60;;;;;;;-13.70;72.89;99947.48;208054;1316;140457;-75
2021/12/26 21:35:30;;;;;;;280.00;94.10;;;;;;;-13.47;73.12;99950.43;208759;1316;141175;-74
2021/12/26 21:40:34;;;;;;;395.80;159.70;;;;;;;-13.26;72.84;99953.80;208894;1318;140725;-69
2021/12/26 21:45:37;;;;;;;261.60;100.80;;;;;;;-13.11;72.77;99959.83;208970;1316;141234;-73
2021/12/26 21:50:40;;;;;;;246.20;95.60;;;;;;;-12.90;72.87;99968.80;207311;1316;141608;-71
2021/12/26 21:55:43;;;;;;;218.60;97.20;;;;;;;-13.02;71.66;99964.84;207558;1316;409562;-69
2021/12/26 22:00:46;;;;;;;265.30;104.10;;;;;;;-13.37;71.68;99957.91;208280;1316;142611;-74
2021/12/26 22:05:48;;;;;;;266.80;107.20;;;;;;;-13.35;72.49;99950.11;207364;1316;140420;-73
2021/12/26 22:10:50;;;;;;;246.60;96.70;;;;;;;-13.30;72.24;99944.08;208106;1316;140418;-67
2021/12/26 22:15:53;;;;;;;323.40;123.70;;;;;;;-13.30;71.97;99942.22;207492;1317;143478;-73
2021/12/26 22:20:55;;;;;;;266.20;104.70;;;;;;;-13.46;72.01;99939.95;207462;1318;141840;-75
2021/12/26 22:25:57;;;;;;;242.30;96.60;;;;;;;-13.57;71.96;99938.29;207961;1316;141744;-73
2021/12/26 22:30:59;;;;;;;206.30;80.40;;;;;;;-13.45;72.50;99938.70;207649;1317;142027;-73
2021/12/26 22:36:02;;;;;;;220.00;85.90;;;;;;;-13.31;72.35;99939.33;207300;1316;141132;-73
2021/12/26 22:41:04;;;;;;;208.60;78.80;;;;;;;-13.38;71.81;99937.46;207197;1323;140552;-74